createdAt,value
2019-04-10T00:01:11.148Z,100684.98
2019-04-10T00:03:43.867Z,100688.61
2019-04-10T00:06:16.578Z,100689.58
2019-04-10T00:08:46.310Z,100680.94
2019-04-10T00:11:16.608Z,100681.55
2019-04-10T00:13:46.952Z,100684.13
2019-04-10T00:16:18.140Z,100684.61
2019-04-10T00:18:48.470Z,100684.56
2019-04-10T00:21:18.380Z,100685.40
2019-04-10T00:23:49.209Z,100686.37
2019-04-10T00:26:19.186Z,100686.85
2019-04-10T00:28:49.754Z,100686.37
2019-04-10T00:31:19.994Z,100689.37
2019-04-10T00:33:49.906Z,100689.63
2019-04-10T00:36:20.380Z,100689.63
2019-04-10T00:38:50.398Z,100686.64
2019-04-10T00:41:21.826Z,100686.42
2019-04-10T00:43:52.206Z,100689.20
2019-04-10T00:46:22.200Z,100687.17
2019-04-10T00:48:52.342Z,100688.63
2019-04-10T00:51:23.441Z,100696.09
2019-04-10T00:53:53.940Z,100697.41
2019-04-10T00:56:24.269Z,100695.38
2019-04-10T00:58:55.402Z,100692.87
2019-04-10T01:01:25.402Z,100694.36
2019-04-10T01:03:56.414Z,100694.00
2019-04-10T01:06:26.501Z,100690.92
2019-04-10T01:08:57.259Z,100690.22
2019-04-10T01:11:27.431Z,100688.55
2019-04-10T01:13:57.241Z,100689.51
2019-04-10T01:16:27.257Z,100685.19
2019-04-10T01:18:56.992Z,100684.16
2019-04-10T01:21:28.426Z,100685.75
2019-04-10T01:23:58.170Z,100687.56
2019-04-10T01:26:28.358Z,100689.63
2019-04-10T01:28:59.167Z,100690.52
2019-04-10T01:31:29.034Z,100695.27
2019-04-10T01:33:58.972Z,100691.34
2019-04-10T01:36:29.073Z,100691.24
2019-04-10T01:39:00.157Z,100691.02
2019-04-10T01:41:30.031Z,100702.09
2019-04-10T01:43:59.929Z,100693.12
2019-04-10T01:46:32.982Z,100698.54
2019-04-10T01:49:02.378Z,100697.48
2019-04-10T01:51:33.032Z,100699.55
2019-04-10T01:54:04.250Z,100695.84
2019-04-10T01:56:36.450Z,100699.45
2019-04-10T01:59:07.735Z,100694.71
2019-04-10T02:01:48.439Z,100691.00
2019-04-10T02:04:18.473Z,100693.30
2019-04-10T02:06:59.946Z,100693.91
2019-04-10T02:09:30.030Z,100693.20
2019-04-10T02:12:00.309Z,100692.65
2019-04-10T02:14:30.121Z,100695.68
2019-04-10T02:17:06.480Z,100691.00
2019-04-10T02:19:37.304Z,100691.38
2019-04-10T02:22:08.554Z,100695.13
2019-04-10T02:24:38.894Z,100698.27
2019-04-10T02:27:09.850Z,100696.50
2019-04-10T02:29:40.433Z,100695.08
2019-04-10T02:32:10.438Z,100701.61
2019-04-10T02:34:41.565Z,100699.58
2019-04-10T02:37:12.875Z,100704.14
2019-04-10T02:39:47.915Z,100696.83
2019-04-10T02:42:14.547Z,100695.41
2019-04-10T02:44:45.730Z,100690.60
2019-04-10T02:47:16.853Z,100692.69
2019-04-10T02:49:47.696Z,100697.02
2019-04-10T02:52:20.121Z,100691.03
2019-04-10T02:54:51.081Z,100692.52
2019-04-10T02:57:21.500Z,100696.62
2019-04-10T02:59:53.651Z,100704.44
2019-04-10T03:02:24.278Z,100700.52
2019-04-10T03:04:55.128Z,100698.02
2019-04-10T03:07:26.116Z,100701.15
2019-04-10T03:10:08.743Z,100701.06
2019-04-10T03:12:28.470Z,100704.43
2019-04-10T03:15:01.054Z,100705.03
2019-04-10T03:17:33.248Z,100714.03
2019-04-10T03:20:24.615Z,100714.79
2019-04-10T03:22:56.881Z,100707.95
2019-04-10T03:25:35.192Z,100713.23
2019-04-10T03:28:09.120Z,100716.23
2019-04-10T03:30:46.501Z,100719.11
2019-04-10T03:33:46.800Z,100715.63
2019-04-10T03:36:35.721Z,100720.70
2019-04-10T03:42:07.293Z,100720.10
2019-04-10T03:44:40.957Z,100722.74
2019-04-10T03:47:15.573Z,100724.54
2019-04-10T03:49:46.988Z,100725.37
2019-04-10T03:52:19.018Z,100725.74
2019-04-10T03:54:52.356Z,100728.02
2019-04-10T03:57:22.639Z,100732.23
2019-04-10T03:59:52.451Z,100730.20
2019-04-10T04:02:22.267Z,100729.25
2019-04-10T04:04:52.225Z,100731.16
2019-04-10T04:07:24.631Z,100729.84
2019-04-10T04:09:53.727Z,100739.19
2019-04-10T04:12:23.672Z,100729.84
2019-04-10T04:14:53.542Z,100739.80
2019-04-10T04:17:24.197Z,100735.35
2019-04-10T04:19:54.618Z,100743.02
2019-04-10T04:22:25.028Z,100742.20
2019-04-10T04:24:55.790Z,100746.26
2019-04-10T04:27:25.614Z,100744.84
2019-04-10T04:29:56.014Z,100750.07
2019-04-10T04:32:26.114Z,100748.14
2019-04-10T04:34:56.335Z,100752.33
2019-04-10T04:37:26.685Z,100752.81
2019-04-10T04:39:56.480Z,100751.49
2019-04-10T04:42:26.549Z,100757.48
2019-04-10T04:44:56.331Z,100759.89
2019-04-10T04:47:26.582Z,100763.37
2019-04-10T04:49:56.402Z,100766.00
2019-04-10T04:52:26.450Z,100763.13
2019-04-10T04:54:57.162Z,100762.58
2019-04-10T04:57:27.111Z,100757.66
2019-04-10T04:59:58.956Z,100768.80
2019-04-10T05:02:28.733Z,100770.68
2019-04-10T05:04:58.919Z,100777.75
2019-04-10T05:07:29.149Z,100780.84
2019-04-10T05:10:01.609Z,100785.04
2019-04-10T05:12:31.830Z,100787.17
2019-04-10T05:15:02.616Z,100794.36
2019-04-10T05:17:33.066Z,100803.47
2019-04-10T05:20:03.031Z,100808.96
2019-04-10T05:22:33.998Z,100813.64
2019-04-10T05:25:04.805Z,100818.07
2019-04-10T05:27:35.068Z,100821.08
2019-04-10T05:30:06.220Z,100830.13
2019-04-10T05:32:37.569Z,100823.06
2019-04-10T05:35:09.753Z,100829.40
2019-04-10T05:37:40.495Z,100833.97
2019-04-10T05:40:11.849Z,100835.62
2019-04-10T05:42:41.881Z,100835.37
2019-04-10T05:45:12.673Z,100834.16
2019-04-10T05:47:42.491Z,100844.03
2019-04-10T05:50:13.003Z,100834.86
2019-04-10T05:52:43.195Z,100838.00
2019-04-10T05:55:13.906Z,100837.19
2019-04-10T05:57:45.031Z,100837.33
2019-04-10T06:00:16.850Z,100836.41
2019-04-10T06:02:48.074Z,100840.24
2019-04-10T06:05:18.221Z,100848.31
2019-04-10T06:07:48.177Z,100846.98
2019-04-10T06:10:19.541Z,100848.92
2019-04-10T06:12:50.762Z,100849.38
2019-04-10T06:15:21.195Z,100854.88
2019-04-10T06:17:52.243Z,100856.78
2019-04-10T06:20:23.015Z,100858.94
2019-04-10T06:22:53.219Z,100857.06
2019-04-10T06:25:24.729Z,100850.69
2019-04-10T06:27:56.868Z,100851.67
2019-04-10T06:30:27.980Z,100846.56
2019-04-10T06:32:58.057Z,100852.20
2019-04-10T06:35:28.244Z,100855.20
2019-04-10T06:37:58.815Z,100853.98
2019-04-10T06:40:30.257Z,100854.97
2019-04-10T06:43:01.029Z,100852.94
2019-04-10T06:45:31.956Z,100855.81
2019-04-10T06:48:02.654Z,100858.35
2019-04-10T06:50:32.669Z,100863.38
2019-04-10T06:53:02.936Z,100864.00
2019-04-10T06:55:33.242Z,100864.25
2019-04-10T06:58:03.731Z,100867.09
2019-04-10T07:00:33.700Z,100868.30
2019-04-10T07:03:03.737Z,100866.26
2019-04-10T07:05:40.789Z,100870.94
2019-04-10T07:08:12.149Z,100861.94
2019-04-10T07:10:49.157Z,100871.30
2019-04-10T07:13:11.567Z,100873.09
2019-04-10T07:15:43.939Z,100874.56
2019-04-10T07:18:16.758Z,100869.01
2019-04-10T07:20:46.337Z,100868.42
2019-04-10T07:23:23.398Z,100866.36
2019-04-10T07:25:48.562Z,100873.18
2019-04-10T07:28:19.517Z,100873.30
2019-04-10T07:30:52.012Z,100877.02
2019-04-10T07:33:22.488Z,100881.91
2019-04-10T07:35:55.134Z,100879.51
2019-04-10T07:38:24.698Z,100880.91
2019-04-10T07:40:54.798Z,100892.68
2019-04-10T07:43:27.429Z,100887.55
2019-04-10T07:45:57.465Z,100885.88
2019-04-10T07:48:27.459Z,100883.34
2019-04-10T07:50:57.472Z,100879.95
2019-04-10T07:53:27.427Z,100879.23
2019-04-10T07:56:05.403Z,100879.34
2019-04-10T07:58:29.366Z,100888.59
2019-04-10T08:00:59.254Z,100891.23
2019-04-10T08:03:29.335Z,100889.27
2019-04-10T08:06:00.391Z,100884.10
2019-04-10T08:08:31.050Z,100885.30
2019-04-10T08:11:01.612Z,100895.61
2019-04-10T08:13:31.574Z,100890.19
2019-04-10T08:16:02.845Z,100890.75
2019-04-10T08:18:32.953Z,100891.11
2019-04-10T08:21:02.990Z,100887.98
2019-04-10T08:23:33.745Z,100891.47
2019-04-10T08:26:04.110Z,100886.05
2019-04-10T08:28:35.007Z,100886.17
2019-04-10T08:31:05.134Z,100888.10
2019-04-10T08:33:35.274Z,100891.82
2019-04-10T08:36:05.679Z,100894.58
2019-04-10T08:38:35.655Z,100891.44
2019-04-10T08:41:09.228Z,100890.30
2019-04-10T08:43:39.672Z,100891.83
2019-04-10T08:46:10.752Z,100896.59
2019-04-10T08:48:41.259Z,100893.92
2019-04-10T08:51:11.456Z,100894.50
2019-04-10T08:53:42.631Z,100901.42
2019-04-10T08:56:13.076Z,100901.03
2019-04-10T08:58:43.984Z,100897.30
2019-04-10T09:01:15.346Z,100895.49
2019-04-10T09:03:46.831Z,100896.88
2019-04-10T09:06:17.540Z,100903.86
2019-04-10T09:08:48.860Z,100892.05
2019-04-10T09:11:26.234Z,100901.31
2019-04-10T09:13:51.405Z,100907.77
2019-04-10T09:16:22.534Z,100901.80
2019-04-10T09:18:53.797Z,100903.09
2019-04-10T09:21:24.007Z,100906.96
2019-04-10T09:23:56.241Z,100905.44
2019-04-10T09:26:26.534Z,100903.15
2019-04-10T09:28:57.107Z,100901.53
2019-04-10T09:31:27.440Z,100898.63
2019-04-10T09:33:57.401Z,100898.56
2019-04-10T09:36:27.377Z,100896.39
2019-04-10T09:38:57.236Z,100898.91
2019-04-10T09:41:28.019Z,100899.05
2019-04-10T09:43:58.343Z,100890.61
2019-04-10T09:46:28.862Z,100892.88
2019-04-10T09:48:58.881Z,100893.19
2019-04-10T09:51:29.707Z,100893.63
2019-04-10T09:53:59.801Z,100887.80
2019-04-10T09:56:29.920Z,100889.62
2019-04-10T09:59:00.872Z,100891.73
2019-04-10T10:01:30.970Z,100884.91
2019-04-10T10:04:02.201Z,100880.74
2019-04-10T10:06:35.255Z,100879.55
2019-04-10T10:09:06.450Z,100880.34
2019-04-10T10:11:36.790Z,100884.26
2019-04-10T10:14:06.815Z,100877.81
2019-04-10T10:16:36.952Z,100881.16
2019-04-10T10:19:07.947Z,100881.87
2019-04-10T10:21:38.802Z,100884.87
2019-04-10T10:24:08.835Z,100879.51
2019-04-10T10:26:39.830Z,100887.73
2019-04-10T10:29:09.954Z,100878.72
2019-04-10T10:31:40.240Z,100887.11
2019-04-10T10:34:10.507Z,100886.89
2019-04-10T10:36:43.415Z,100885.94
2019-04-10T10:39:19.262Z,100887.48
2019-04-10T10:41:51.089Z,100884.81
2019-04-10T10:44:21.842Z,100887.32
2019-04-10T10:46:51.921Z,100876.07
2019-04-10T10:49:21.879Z,100877.21
2019-04-10T10:51:52.137Z,100873.57
2019-04-10T10:54:23.161Z,100876.69
2019-04-10T10:56:53.120Z,100877.97
2019-04-10T10:59:23.164Z,100873.70
2019-04-10T11:01:53.857Z,100881.46
2019-04-10T11:04:24.193Z,100873.27
2019-04-10T11:09:26.202Z,100882.28
2019-04-10T11:11:56.244Z,100877.52
2019-04-10T11:14:26.173Z,100876.22
2019-04-10T11:16:57.675Z,100875.23
2019-04-10T11:19:28.959Z,100879.81
2019-04-10T11:21:59.220Z,100878.38
2019-04-10T11:24:29.199Z,100883.03
2019-04-10T11:27:00.084Z,100883.40
2019-04-10T11:29:31.474Z,100889.09
2019-04-10T11:32:01.967Z,100883.47
2019-04-10T11:34:33.653Z,100892.44
2019-04-10T11:37:20.277Z,100884.64
2019-04-10T11:39:38.345Z,100888.82
2019-04-10T11:42:09.478Z,100884.21
2019-04-10T11:44:39.585Z,100890.73
2019-04-10T11:47:10.982Z,100891.09
2019-04-10T11:49:43.373Z,100891.27
2019-04-10T11:52:14.511Z,100891.34
2019-04-10T11:54:46.277Z,100883.18
2019-04-10T11:57:16.647Z,100877.67
2019-04-10T11:59:49.054Z,100886.36
2019-04-10T12:02:21.825Z,100881.69
2019-04-10T12:04:55.695Z,100887.69
2019-04-10T12:07:52.923Z,100888.00
2019-04-10T12:12:28.009Z,100895.48
2019-04-10T12:14:57.946Z,100889.98
2019-04-10T12:17:27.899Z,100889.31
2019-04-10T12:19:57.750Z,100884.09
2019-04-10T12:22:29.631Z,100882.91
2019-04-10T12:25:00.642Z,100885.91
2019-04-10T12:27:31.436Z,100893.72
2019-04-10T12:30:02.887Z,100894.05
2019-04-10T12:32:34.712Z,100888.19
2019-04-10T12:35:05.029Z,100895.67
2019-04-10T12:37:35.656Z,100899.66
2019-04-10T12:40:06.200Z,100894.43
2019-04-10T12:42:36.527Z,100893.06
2019-04-10T12:45:08.259Z,100898.02
2019-04-10T12:47:39.794Z,100891.16
2019-04-10T12:50:10.037Z,100894.66
2019-04-10T12:52:40.875Z,100897.09
2019-04-10T12:55:12.220Z,100898.42
2019-04-10T12:57:47.601Z,100902.36
2019-04-10T13:00:23.640Z,100898.72
2019-04-10T13:02:59.438Z,100898.25
2019-04-10T13:05:29.387Z,100901.66
2019-04-10T13:08:12.011Z,100898.28
2019-04-10T13:10:31.918Z,100899.59
2019-04-10T13:13:02.002Z,100906.73
2019-04-10T13:15:33.228Z,100905.28
2019-04-10T13:18:03.814Z,100905.52
2019-04-10T13:20:33.940Z,100898.52
2019-04-10T13:23:04.892Z,100900.61
2019-04-10T13:25:34.737Z,100900.30
2019-04-10T13:28:05.501Z,100910.25
2019-04-10T13:30:46.656Z,100904.16
2019-04-10T13:33:08.684Z,100898.05
2019-04-10T13:35:38.648Z,100909.95
2019-04-10T13:38:08.848Z,100903.80
2019-04-10T13:40:39.526Z,100904.20
2019-04-10T13:43:09.605Z,100904.29
2019-04-10T13:45:39.502Z,100911.17
2019-04-10T13:48:10.224Z,100903.17
2019-04-10T13:50:41.129Z,100901.86
2019-04-10T13:53:11.027Z,100898.42
2019-04-10T13:55:40.898Z,100900.67
2019-04-10T13:58:10.838Z,100902.94
2019-04-10T14:00:42.939Z,100902.98
2019-04-10T14:03:14.290Z,100909.19
2019-04-10T14:05:45.068Z,100907.41
2019-04-10T14:08:16.691Z,100914.83
2019-04-10T14:10:46.910Z,100905.42
2019-04-10T14:13:17.950Z,100909.59
2019-04-10T14:15:48.457Z,100912.08
2019-04-10T14:18:18.606Z,100913.84
2019-04-10T14:20:49.636Z,100915.61
2019-04-10T14:23:24.668Z,100913.93
2019-04-10T14:26:06.707Z,100914.99
2019-04-10T14:28:37.527Z,100908.08
2019-04-10T14:31:36.264Z,100911.16
2019-04-10T14:34:06.644Z,100911.55
2019-04-10T14:36:36.578Z,100923.91
2019-04-10T14:39:18.299Z,100916.98
2019-04-10T14:41:46.582Z,100927.52
2019-04-10T14:44:16.524Z,100931.41
2019-04-10T14:46:46.490Z,100932.73
2019-04-10T14:49:16.801Z,100933.41
2019-04-10T14:51:46.836Z,100936.75
2019-04-10T14:54:16.771Z,100939.78
2019-04-10T14:56:46.719Z,100936.94
2019-04-10T14:59:17.752Z,100931.07
2019-04-10T15:01:48.366Z,100941.09
2019-04-10T15:04:19.308Z,100941.59
2019-04-10T15:06:50.020Z,100946.11
2019-04-10T15:09:25.829Z,100933.09
2019-04-10T15:11:55.200Z,100942.78
2019-04-10T15:14:25.927Z,100934.42
2019-04-10T15:17:02.840Z,100943.59
2019-04-10T15:19:28.987Z,100942.45
2019-04-10T15:21:59.154Z,100936.41
2019-04-10T15:24:29.494Z,100943.95
2019-04-10T15:27:00.417Z,100950.13
2019-04-10T15:29:30.806Z,100955.80
2019-04-10T15:32:01.025Z,100940.09
2019-04-10T15:34:31.205Z,100952.95
2019-04-10T15:37:01.167Z,100957.12
2019-04-10T15:39:35.710Z,100959.13
2019-04-10T15:42:03.726Z,100966.80
2019-04-10T15:44:34.334Z,100960.78
2019-04-10T15:47:14.567Z,100965.30
2019-04-10T15:49:37.349Z,100968.13
2019-04-10T15:52:07.831Z,100964.45
2019-04-10T15:54:38.208Z,100972.33
2019-04-10T15:57:08.759Z,100969.47
2019-04-10T15:59:39.208Z,100974.50
2019-04-10T16:02:13.182Z,100977.98
2019-04-10T16:04:44.916Z,100978.19
2019-04-10T16:07:16.109Z,100974.49
2019-04-10T16:09:51.641Z,100981.85
2019-04-10T16:12:18.904Z,100985.34
2019-04-10T16:14:49.187Z,100985.63
2019-04-10T16:17:41.959Z,100979.36
2019-04-10T16:20:25.658Z,100990.06
2019-04-10T16:23:31.354Z,100986.86
2019-04-10T16:26:01.424Z,100984.82
2019-04-10T16:28:31.505Z,100990.51
2019-04-10T16:31:03.300Z,100994.17
2019-04-10T16:33:33.706Z,100988.16
2019-04-10T16:36:05.160Z,100996.92
2019-04-10T16:38:36.208Z,101001.06
2019-04-10T16:41:06.378Z,100999.48
2019-04-10T16:43:36.532Z,101002.28
2019-04-10T16:46:07.125Z,101004.50
2019-04-10T16:48:37.005Z,101016.13
2019-04-10T16:51:08.002Z,101019.48
2019-04-10T16:53:38.322Z,101016.14
2019-04-10T16:56:09.417Z,101018.35
2019-04-10T16:58:41.162Z,101028.25
2019-04-10T17:01:12.502Z,101032.60
2019-04-10T17:03:42.676Z,101021.09
2019-04-10T17:06:12.630Z,101029.45
2019-04-10T17:08:43.931Z,101029.45
2019-04-10T17:11:14.636Z,101023.09
2019-04-10T17:13:44.676Z,101021.86
2019-04-10T17:16:15.666Z,101021.86
2019-04-10T17:18:45.843Z,101036.55
2019-04-10T17:21:18.034Z,101042.69
2019-04-10T17:23:49.092Z,101046.28
2019-04-10T17:26:19.120Z,101044.81
2019-04-10T17:28:48.872Z,101055.58
2019-04-10T17:31:18.799Z,101054.48
2019-04-10T17:33:48.739Z,101052.48
2019-04-10T17:36:18.942Z,101055.84
2019-04-10T17:38:49.070Z,101055.78
2019-04-10T17:41:19.676Z,101064.09
2019-04-10T17:43:49.698Z,101064.95
2019-04-10T17:46:20.597Z,101075.95
2019-04-10T17:48:51.732Z,101075.05
2019-04-10T17:51:22.033Z,101083.56
2019-04-10T17:53:52.255Z,101081.27
2019-04-10T17:56:22.306Z,101090.25
2019-04-10T17:58:52.267Z,101084.14
2019-04-10T18:01:23.030Z,101099.64
2019-04-10T18:03:57.212Z,101096.98
2019-04-10T18:06:25.597Z,101105.53
2019-04-10T18:08:57.027Z,101104.90
2019-04-10T18:11:27.954Z,101114.17
2019-04-10T18:13:58.620Z,101121.30
2019-04-10T18:16:29.559Z,101114.63
2019-04-10T18:19:00.108Z,101117.31
2019-04-10T18:21:30.880Z,101131.92
2019-04-10T18:24:02.059Z,101128.29
2019-04-10T18:26:32.047Z,101131.44
2019-04-10T18:29:02.491Z,101141.76
2019-04-10T18:31:32.641Z,101134.63
2019-04-10T18:34:03.854Z,101135.89
2019-04-10T18:36:34.204Z,101141.91
2019-04-10T18:39:09.867Z,101143.30
2019-04-10T18:41:40.233Z,101153.81
2019-04-10T18:44:10.968Z,101162.41
2019-04-10T18:46:41.685Z,101167.60
2019-04-10T18:49:11.921Z,101171.86
2019-04-10T18:51:42.454Z,101168.99
2019-04-10T18:54:12.545Z,101173.73
2019-04-10T18:56:43.116Z,101179.19
2019-04-10T18:59:26.884Z,101183.70
2019-04-10T19:02:09.552Z,101190.20
2019-04-10T19:04:47.426Z,101194.41
2019-04-10T19:07:18.196Z,101197.20
2019-04-10T19:09:49.079Z,101199.77
2019-04-10T19:12:19.252Z,101198.30
2019-04-10T19:14:49.190Z,101199.76
2019-04-10T19:17:19.802Z,101206.53
2019-04-10T19:19:50.796Z,101208.73
2019-04-10T19:22:20.769Z,101214.31
2019-04-10T19:24:50.670Z,101217.20
2019-04-10T19:27:22.179Z,101214.08
2019-04-10T19:29:52.899Z,101217.44
2019-04-10T19:32:45.786Z,101228.80
2019-04-10T19:35:15.626Z,101227.77
2019-04-10T19:37:45.800Z,101227.31
2019-04-10T19:40:17.145Z,101229.45
2019-04-10T19:42:47.083Z,101233.81
2019-04-10T19:45:17.482Z,101236.72
2019-04-10T19:47:47.714Z,101239.41
2019-04-10T19:50:17.850Z,101244.64
2019-04-10T19:52:48.757Z,101240.09
2019-04-10T19:55:19.760Z,101251.25
2019-04-10T19:57:50.684Z,101250.42
2019-04-10T20:00:24.237Z,101255.92
2019-04-10T20:02:55.157Z,101254.73
2019-04-10T20:05:25.366Z,101261.80
2019-04-10T20:07:55.617Z,101265.70
2019-04-10T20:10:25.650Z,101271.50
2019-04-10T20:12:57.215Z,101266.36
2019-04-10T20:15:27.027Z,101267.95
2019-04-10T20:17:56.979Z,101271.80
2019-04-10T20:20:27.138Z,101271.35
2019-04-10T20:22:58.093Z,101269.06
2019-04-10T20:25:28.221Z,101272.79
2019-04-10T20:27:58.513Z,101272.79
2019-04-10T20:30:30.410Z,101278.20
2019-04-10T20:33:00.793Z,101281.20
2019-04-10T20:35:31.982Z,101284.21
2019-04-10T20:38:02.983Z,101280.38
2019-04-10T20:40:33.954Z,101293.72
2019-04-10T20:43:04.794Z,101293.63
2019-04-10T20:45:35.692Z,101286.65
2019-04-10T20:48:06.558Z,101293.98
2019-04-10T20:50:36.701Z,101298.05
2019-04-10T20:53:07.495Z,101302.75
2019-04-10T20:55:37.692Z,101302.63
2019-04-10T20:58:07.496Z,101307.31
2019-04-10T21:00:40.891Z,101305.89
2019-04-10T21:03:11.458Z,101311.87
2019-04-10T21:05:42.445Z,101313.44
2019-04-10T21:08:12.350Z,101320.64
2019-04-10T21:10:42.901Z,101328.11
2019-04-10T21:13:13.045Z,101329.89
2019-04-10T21:15:42.888Z,101331.56
2019-04-10T21:18:13.193Z,101334.44
2019-04-10T21:20:43.279Z,101336.47
2019-04-10T21:23:13.169Z,101335.59
2019-04-10T21:25:43.544Z,101342.53
2019-04-10T21:28:14.092Z,101341.77
2019-04-10T21:30:52.935Z,101342.58
2019-04-10T21:33:30.363Z,101348.20
2019-04-10T21:36:00.214Z,101346.58
2019-04-10T21:38:30.261Z,101349.70
2019-04-10T21:41:00.528Z,101348.22
2019-04-10T21:43:31.336Z,101351.60
2019-04-10T21:46:01.246Z,101356.88
2019-04-10T21:48:31.061Z,101364.55
2019-04-10T21:51:00.974Z,101363.44
2019-04-10T21:53:33.969Z,101367.25
2019-04-10T21:56:04.136Z,101361.91
2019-04-10T21:58:34.555Z,101371.94
2019-04-10T22:01:11.708Z,101371.94
2019-04-10T22:03:41.629Z,101365.55
2019-04-10T22:06:38.222Z,101371.13
2019-04-10T22:09:36.978Z,101366.48
2019-04-10T22:12:25.916Z,101367.15
2019-04-10T22:14:50.905Z,101370.73
2019-04-10T22:17:21.197Z,101372.22
2019-04-10T22:19:51.289Z,101372.85
2019-04-10T22:22:22.487Z,101375.97
2019-04-10T22:24:52.734Z,101374.91
2019-04-10T22:27:23.351Z,101380.76
2019-04-10T22:29:54.320Z,101377.91
2019-04-10T22:32:24.781Z,101383.93
2019-04-10T22:34:54.918Z,101383.66
2019-04-10T22:37:25.746Z,101382.08
2019-04-10T22:39:56.639Z,101385.20
2019-04-10T22:42:39.027Z,101384.53
2019-04-10T22:45:00.259Z,101384.73
2019-04-10T22:47:30.144Z,101385.01
2019-04-10T22:50:00.780Z,101382.74
2019-04-10T22:52:30.723Z,101381.11
2019-04-10T22:55:01.399Z,101385.95
2019-04-10T22:57:31.574Z,101385.16
2019-04-10T23:00:01.425Z,101383.02
2019-04-10T23:02:32.891Z,101384.72
2019-04-10T23:05:02.732Z,101390.84
2019-04-10T23:07:33.640Z,101390.73
2019-04-10T23:10:04.499Z,101393.16
2019-04-10T23:12:34.423Z,101396.17
2019-04-10T23:15:04.518Z,101393.80
2019-04-10T23:17:34.847Z,101392.01
2019-04-10T23:20:04.975Z,101390.48
2019-04-10T23:22:35.552Z,101391.80
2019-04-10T23:25:05.534Z,101391.80
2019-04-10T23:27:35.669Z,101395.76
2019-04-10T23:30:08.844Z,101393.59
2019-04-10T23:32:39.596Z,101393.91
2019-04-10T23:35:10.257Z,101397.02
2019-04-10T23:37:40.689Z,101394.86
2019-04-10T23:40:10.632Z,101397.49
2019-04-10T23:42:40.502Z,101394.69
2019-04-10T23:45:11.473Z,101399.59
2019-04-10T23:47:42.477Z,101395.27
2019-04-10T23:50:12.389Z,101395.14
2019-04-10T23:52:42.296Z,101404.11
2019-04-10T23:55:13.368Z,101403.47
2019-04-10T23:57:43.888Z,101409.66
